sensor_id;sensor_type;location;lat;lon;timestamp;P1;durP1;ratioP1;P2;durP2;ratioP2
60257;SDS011;46115;44.484;11.314;2023-12-22T00:06:49;15.60;;;9.25;;
60257;SDS011;46115;44.484;11.314;2023-12-22T00:10:54;14.43;;;8.85;;
60257;SDS011;46115;44.484;11.314;2023-12-22T00:14:56;16.17;;;8.90;;
60257;SDS011;46115;44.484;11.314;2023-12-22T00:18:59;16.50;;;8.90;;
60257;SDS011;46115;44.484;11.314;2023-12-22T00:27:05;17.60;;;9.60;;
60257;SDS011;46115;44.484;11.314;2023-12-22T00:31:07;11.45;;;7.32;;
60257;SDS011;46115;44.484;11.314;2023-12-22T00:35:10;11.52;;;7.57;;
60257;SDS011;46115;44.484;11.314;2023-12-22T00:43:16;5.82;;;3.03;;
60257;SDS011;46115;44.484;11.314;2023-12-22T00:47:18;5.75;;;2.97;;
60257;SDS011;46115;44.484;11.314;2023-12-22T00:51:20;7.60;;;2.67;;
60257;SDS011;46115;44.484;11.314;2023-12-22T00:59:26;5.38;;;2.10;;
60257;SDS011;46115;44.484;11.314;2023-12-22T01:03:29;4.35;;;1.90;;
60257;SDS011;46115;44.484;11.314;2023-12-22T01:11:33;7.97;;;1.90;;
60257;SDS011;46115;44.484;11.314;2023-12-22T01:15:37;4.30;;;1.75;;
60257;SDS011;46115;44.484;11.314;2023-12-22T01:19:40;3.65;;;1.70;;
60257;SDS011;46115;44.484;11.314;2023-12-22T01:23:42;8.27;;;1.80;;
60257;SDS011;46115;44.484;11.314;2023-12-22T01:27:45;5.93;;;1.77;;
60257;SDS011;46115;44.484;11.314;2023-12-22T01:31:49;4.38;;;1.52;;
60257;SDS011;46115;44.484;11.314;2023-12-22T01:35:52;5.70;;;1.65;;
60257;SDS011;46115;44.484;11.314;2023-12-22T01:39:54;5.75;;;1.77;;
60257;SDS011;46115;44.484;11.314;2023-12-22T01:48:02;6.63;;;1.70;;
60257;SDS011;46115;44.484;11.314;2023-12-22T01:52:05;5.68;;;1.63;;
60257;SDS011;46115;44.484;11.314;2023-12-22T01:56:08;4.55;;;1.40;;
60257;SDS011;46115;44.484;11.314;2023-12-22T02:00:11;6.78;;;1.80;;
60257;SDS011;46115;44.484;11.314;2023-12-22T02:04:15;5.30;;;1.60;;
60257;SDS011;46115;44.484;11.314;2023-12-22T02:08:18;4.25;;;1.33;;
60257;SDS011;46115;44.484;11.314;2023-12-22T02:12:22;3.38;;;1.38;;
60257;SDS011;46115;44.484;11.314;2023-12-22T02:16:26;3.55;;;1.50;;
60257;SDS011;46115;44.484;11.314;2023-12-22T02:20:36;4.22;;;1.40;;
60257;SDS011;46115;44.484;11.314;2023-12-22T02:24:41;2.80;;;1.10;;
60257;SDS011;46115;44.484;11.314;2023-12-22T02:28:44;3.92;;;1.40;;
60257;SDS011;46115;44.484;11.314;2023-12-22T02:32:50;1.70;;;0.70;;
60257;SDS011;46115;44.484;11.314;2023-12-22T02:36:56;3.58;;;0.80;;
60257;SDS011;46115;44.484;11.314;2023-12-22T02:41:01;2.40;;;0.70;;
60257;SDS011;46115;44.484;11.314;2023-12-22T02:45:04;1.83;;;0.70;;
60257;SDS011;46115;44.484;11.314;2023-12-22T02:49:08;1.50;;;0.60;;
60257;SDS011;46115;44.484;11.314;2023-12-22T02:53:10;1.50;;;0.80;;
60257;SDS011;46115;44.484;11.314;2023-12-22T02:57:14;2.72;;;0.60;;
60257;SDS011;46115;44.484;11.314;2023-12-22T03:01:16;1.58;;;0.60;;
60257;SDS011;46115;44.484;11.314;2023-12-22T03:05:19;2.30;;;0.80;;
60257;SDS011;46115;44.484;11.314;2023-12-22T03:09:21;1.23;;;0.63;;
60257;SDS011;46115;44.484;11.314;2023-12-22T03:13:25;3.25;;;0.63;;
60257;SDS011;46115;44.484;11.314;2023-12-22T03:17:28;1.02;;;0.50;;
60257;SDS011;46115;44.484;11.314;2023-12-22T03:21:30;1.30;;;0.50;;
60257;SDS011;46115;44.484;11.314;2023-12-22T03:25:32;2.45;;;0.70;;
60257;SDS011;46115;44.484;11.314;2023-12-22T03:29:36;1.60;;;0.60;;
60257;SDS011;46115;44.484;11.314;2023-12-22T03:33:39;0.80;;;0.50;;
60257;SDS011;46115;44.484;11.314;2023-12-22T03:37:41;1.95;;;0.70;;
60257;SDS011;46115;44.484;11.314;2023-12-22T03:41:44;3.60;;;0.70;;
60257;SDS011;46115;44.484;11.314;2023-12-22T03:45:47;2.13;;;0.55;;
60257;SDS011;46115;44.484;11.314;2023-12-22T03:49:50;3.63;;;0.70;;
60257;SDS011;46115;44.484;11.314;2023-12-22T03:53:52;2.80;;;0.80;;
60257;SDS011;46115;44.484;11.314;2023-12-22T03:57:55;2.80;;;0.90;;
60257;SDS011;46115;44.484;11.314;2023-12-22T04:01:59;1.25;;;0.60;;
60257;SDS011;46115;44.484;11.314;2023-12-22T04:06:02;1.48;;;0.60;;
60257;SDS011;46115;44.484;11.314;2023-12-22T04:10:05;2.38;;;0.85;;
60257;SDS011;46115;44.484;11.314;2023-12-22T04:14:08;2.20;;;0.80;;
60257;SDS011;46115;44.484;11.314;2023-12-22T04:18:12;2.17;;;0.70;;
60257;SDS011;46115;44.484;11.314;2023-12-22T04:22:14;1.35;;;0.70;;
60257;SDS011;46115;44.484;11.314;2023-12-22T04:26:17;3.45;;;0.90;;
60257;SDS011;46115;44.484;11.314;2023-12-22T04:30:19;2.05;;;0.80;;
60257;SDS011;46115;44.484;11.314;2023-12-22T04:34:23;4.38;;;0.80;;
60257;SDS011;46115;44.484;11.314;2023-12-22T04:38:25;3.42;;;0.82;;
60257;SDS011;46115;44.484;11.314;2023-12-22T04:42:28;3.60;;;0.80;;
60257;SDS011;46115;44.484;11.314;2023-12-22T04:46:30;4.60;;;1.25;;
60257;SDS011;46115;44.484;11.314;2023-12-22T04:50:34;2.60;;;0.80;;
60257;SDS011;46115;44.484;11.314;2023-12-22T04:54:37;1.48;;;0.70;;
60257;SDS011;46115;44.484;11.314;2023-12-22T04:58:39;2.25;;;0.70;;
60257;SDS011;46115;44.484;11.314;2023-12-22T05:02:42;1.42;;;0.88;;
60257;SDS011;46115;44.484;11.314;2023-12-22T05:06:46;2.13;;;0.80;;
60257;SDS011;46115;44.484;11.314;2023-12-22T05:10:48;2.30;;;0.60;;
60257;SDS011;46115;44.484;11.314;2023-12-22T05:14:50;1.75;;;0.70;;
60257;SDS011;46115;44.484;11.314;2023-12-22T05:18:53;1.80;;;0.80;;
60257;SDS011;46115;44.484;11.314;2023-12-22T05:22:57;2.08;;;0.65;;
60257;SDS011;46115;44.484;11.314;2023-12-22T05:26:59;1.63;;;0.70;;
60257;SDS011;46115;44.484;11.314;2023-12-22T05:31:02;3.50;;;0.90;;
60257;SDS011;46115;44.484;11.314;2023-12-22T05:35:05;1.83;;;0.70;;
60257;SDS011;46115;44.484;11.314;2023-12-22T05:39:09;1.60;;;0.80;;
60257;SDS011;46115;44.484;11.314;2023-12-22T05:43:11;2.88;;;1.20;;
60257;SDS011;46115;44.484;11.314;2023-12-22T05:47:14;2.00;;;0.70;;
60257;SDS011;46115;44.484;11.314;2023-12-22T05:51:16;2.67;;;0.77;;
60257;SDS011;46115;44.484;11.314;2023-12-22T05:55:20;9.63;;;0.85;;
60257;SDS011;46115;44.484;11.314;2023-12-22T05:59:22;1.92;;;0.80;;
60257;SDS011;46115;44.484;11.314;2023-12-22T06:03:25;3.58;;;0.80;;
60257;SDS011;46115;44.484;11.314;2023-12-22T06:07:27;2.28;;;0.90;;
60257;SDS011;46115;44.484;11.314;2023-12-22T06:11:31;2.08;;;0.70;;
60257;SDS011;46115;44.484;11.314;2023-12-22T06:15:33;2.45;;;0.82;;
60257;SDS011;46115;44.484;11.314;2023-12-22T06:19:36;2.47;;;0.70;;
60257;SDS011;46115;44.484;11.314;2023-12-22T06:23:38;4.47;;;0.90;;
60257;SDS011;46115;44.484;11.314;2023-12-22T06:27:44;1.30;;;0.70;;
60257;SDS011;46115;44.484;11.314;2023-12-22T06:31:47;1.52;;;0.75;;
60257;SDS011;46115;44.484;11.314;2023-12-22T06:35:51;2.47;;;0.88;;
60257;SDS011;46115;44.484;11.314;2023-12-22T06:39:54;2.28;;;0.80;;
60257;SDS011;46115;44.484;11.314;2023-12-22T06:43:58;3.15;;;0.80;;
60257;SDS011;46115;44.484;11.314;2023-12-22T06:48:01;3.97;;;0.88;;
60257;SDS011;46115;44.484;11.314;2023-12-22T06:52:04;2.95;;;0.80;;
60257;SDS011;46115;44.484;11.314;2023-12-22T06:56:14;1.63;;;0.60;;
60257;SDS011;46115;44.484;11.314;2023-12-22T07:00:18;3.00;;;0.70;;
60257;SDS011;46115;44.484;11.314;2023-12-22T07:04:21;4.68;;;0.90;;
60257;SDS011;46115;44.484;11.314;2023-12-22T07:08:24;1.88;;;0.70;;
60257;SDS011;46115;44.484;11.314;2023-12-22T07:12:26;2.38;;;0.70;;
60257;SDS011;46115;44.484;11.314;2023-12-22T07:16:30;1.45;;;0.80;;
60257;SDS011;46115;44.484;11.314;2023-12-22T07:20:33;4.32;;;0.80;;
60257;SDS011;46115;44.484;11.314;2023-12-22T07:24:35;2.60;;;0.80;;
60257;SDS011;46115;44.484;11.314;2023-12-22T07:28:38;1.48;;;0.80;;
60257;SDS011;46115;44.484;11.314;2023-12-22T07:32:41;1.50;;;0.70;;
60257;SDS011;46115;44.484;11.314;2023-12-22T07:36:45;2.67;;;0.85;;
60257;SDS011;46115;44.484;11.314;2023-12-22T07:40:48;1.35;;;0.68;;
60257;SDS011;46115;44.484;11.314;2023-12-22T07:44:50;2.70;;;0.70;;
60257;SDS011;46115;44.484;11.314;2023-12-22T07:48:54;3.72;;;0.70;;
60257;SDS011;46115;44.484;11.314;2023-12-22T07:52:56;2.05;;;0.80;;
60257;SDS011;46115;44.484;11.314;2023-12-22T07:56:59;4.72;;;0.90;;
60257;SDS011;46115;44.484;11.314;2023-12-22T08:01:02;4.22;;;0.93;;
60257;SDS011;46115;44.484;11.314;2023-12-22T08:05:06;2.58;;;0.88;;
60257;SDS011;46115;44.484;11.314;2023-12-22T08:09:08;2.88;;;1.10;;
60257;SDS011;46115;44.484;11.314;2023-12-22T08:13:11;4.13;;;0.80;;
60257;SDS011;46115;44.484;11.314;2023-12-22T08:17:13;2.25;;;0.65;;
60257;SDS011;46115;44.484;11.314;2023-12-22T08:21:17;1.48;;;0.60;;
60257;SDS011;46115;44.484;11.314;2023-12-22T08:25:20;2.92;;;0.70;;
60257;SDS011;46115;44.484;11.314;2023-12-22T08:29:22;7.15;;;0.90;;
60257;SDS011;46115;44.484;11.314;2023-12-22T08:33:25;2.10;;;0.60;;
60257;SDS011;46115;44.484;11.314;2023-12-22T08:37:28;1.83;;;0.60;;
60257;SDS011;46115;44.484;11.314;2023-12-22T08:41:31;4.97;;;0.63;;
60257;SDS011;46115;44.484;11.314;2023-12-22T08:45:36;2.05;;;0.65;;
60257;SDS011;46115;44.484;11.314;2023-12-22T08:49:39;3.88;;;0.75;;
60257;SDS011;46115;44.484;11.314;2023-12-22T08:53:43;4.78;;;0.70;;
60257;SDS011;46115;44.484;11.314;2023-12-22T08:57:45;2.55;;;0.70;;
60257;SDS011;46115;44.484;11.314;2023-12-22T09:01:47;2.22;;;0.65;;
60257;SDS011;46115;44.484;11.314;2023-12-22T09:05:50;15.13;;;0.80;;
60257;SDS011;46115;44.484;11.314;2023-12-22T09:09:54;1.63;;;0.57;;
60257;SDS011;46115;44.484;11.314;2023-12-22T09:13:56;4.15;;;0.60;;
60257;SDS011;46115;44.484;11.314;2023-12-22T09:17:58;1.67;;;0.57;;
60257;SDS011;46115;44.484;11.314;2023-12-22T09:22:01;3.55;;;0.60;;
60257;SDS011;46115;44.484;11.314;2023-12-22T09:26:05;3.38;;;0.60;;
60257;SDS011;46115;44.484;11.314;2023-12-22T09:30:08;1.85;;;0.50;;
60257;SDS011;46115;44.484;11.314;2023-12-22T09:34:11;3.10;;;0.63;;
60257;SDS011;46115;44.484;11.314;2023-12-22T09:38:13;4.28;;;0.70;;
60257;SDS011;46115;44.484;11.314;2023-12-22T09:42:17;2.53;;;0.60;;
60257;SDS011;46115;44.484;11.314;2023-12-22T09:46:20;1.90;;;0.70;;
60257;SDS011;46115;44.484;11.314;2023-12-22T09:50:23;3.90;;;0.70;;
60257;SDS011;46115;44.484;11.314;2023-12-22T09:54:26;4.43;;;0.65;;
60257;SDS011;46115;44.484;11.314;2023-12-22T09:58:30;2.63;;;0.85;;
60257;SDS011;46115;44.484;11.314;2023-12-22T10:02:36;2.58;;;0.60;;
60257;SDS011;46115;44.484;11.314;2023-12-22T10:06:39;9.02;;;0.75;;
60257;SDS011;46115;44.484;11.314;2023-12-22T10:10:42;2.80;;;0.50;;
60257;SDS011;46115;44.484;11.314;2023-12-22T10:14:46;3.10;;;0.57;;
60257;SDS011;46115;44.484;11.314;2023-12-22T10:18:49;5.88;;;0.65;;
60257;SDS011;46115;44.484;11.314;2023-12-22T10:22:52;8.20;;;0.70;;
60257;SDS011;46115;44.484;11.314;2023-12-22T10:26:54;2.83;;;0.50;;
60257;SDS011;46115;44.484;11.314;2023-12-22T10:30:58;5.85;;;0.60;;
60257;SDS011;46115;44.484;11.314;2023-12-22T10:35:07;6.05;;;0.70;;
60257;SDS011;46115;44.484;11.314;2023-12-22T10:39:10;2.85;;;0.70;;
60257;SDS011;46115;44.484;11.314;2023-12-22T10:43:12;3.15;;;0.43;;
60257;SDS011;46115;44.484;11.314;2023-12-22T10:47:16;6.10;;;0.70;;
60257;SDS011;46115;44.484;11.314;2023-12-22T10:51:19;9.30;;;0.70;;
60257;SDS011;46115;44.484;11.314;2023-12-22T10:55:21;3.45;;;0.60;;
60257;SDS011;46115;44.484;11.314;2023-12-22T10:59:24;2.17;;;0.52;;
60257;SDS011;46115;44.484;11.314;2023-12-22T11:03:31;3.08;;;0.60;;
60257;SDS011;46115;44.484;11.314;2023-12-22T11:07:37;3.05;;;0.50;;
60257;SDS011;46115;44.484;11.314;2023-12-22T11:11:43;1.92;;;0.40;;
60257;SDS011;46115;44.484;11.314;2023-12-22T11:15:48;5.95;;;0.73;;
60257;SDS011;46115;44.484;11.314;2023-12-22T11:19:54;2.95;;;0.60;;
60257;SDS011;46115;44.484;11.314;2023-12-22T11:23:58;1.35;;;0.50;;
60257;SDS011;46115;44.484;11.314;2023-12-22T11:28:02;3.83;;;0.60;;
60257;SDS011;46115;44.484;11.314;2023-12-22T11:32:07;2.50;;;0.60;;
60257;SDS011;46115;44.484;11.314;2023-12-22T11:36:12;6.10;;;0.60;;
60257;SDS011;46115;44.484;11.314;2023-12-22T11:40:15;3.10;;;1.15;;
60257;SDS011;46115;44.484;11.314;2023-12-22T11:44:18;2.65;;;0.50;;
60257;SDS011;46115;44.484;11.314;2023-12-22T11:48:21;4.00;;;0.50;;
60257;SDS011;46115;44.484;11.314;2023-12-22T11:52:26;2.22;;;0.50;;
60257;SDS011;46115;44.484;11.314;2023-12-22T11:56:30;2.03;;;0.50;;
60257;SDS011;46115;44.484;11.314;2023-12-22T12:00:37;3.20;;;0.52;;
60257;SDS011;46115;44.484;11.314;2023-12-22T12:04:40;1.67;;;0.50;;
60257;SDS011;46115;44.484;11.314;2023-12-22T12:08:44;1.42;;;0.50;;
60257;SDS011;46115;44.484;11.314;2023-12-22T12:12:46;0.90;;;0.50;;
60257;SDS011;46115;44.484;11.314;2023-12-22T12:16:49;1.30;;;0.45;;
60257;SDS011;46115;44.484;11.314;2023-12-22T12:20:51;2.35;;;0.55;;
60257;SDS011;46115;44.484;11.314;2023-12-22T12:24:55;8.38;;;0.40;;
60257;SDS011;46115;44.484;11.314;2023-12-22T12:28:58;1.67;;;0.35;;
60257;SDS011;46115;44.484;11.314;2023-12-22T12:33:05;8.30;;;0.63;;
60257;SDS011;46115;44.484;11.314;2023-12-22T12:37:08;2.67;;;0.40;;
60257;SDS011;46115;44.484;11.314;2023-12-22T12:41:13;1.98;;;0.40;;
60257;SDS011;46115;44.484;11.314;2023-12-22T12:45:21;1.65;;;0.30;;
60257;SDS011;46115;44.484;11.314;2023-12-22T12:49:24;5.53;;;0.40;;
60257;SDS011;46115;44.484;11.314;2023-12-22T12:53:30;2.95;;;0.30;;
60257;SDS011;46115;44.484;11.314;2023-12-22T12:57:35;2.80;;;0.30;;
60257;SDS011;46115;44.484;11.314;2023-12-22T13:01:38;2.08;;;0.45;;
60257;SDS011;46115;44.484;11.314;2023-12-22T13:05:41;1.00;;;0.40;;
60257;SDS011;46115;44.484;11.314;2023-12-22T13:09:43;3.38;;;0.40;;
60257;SDS011;46115;44.484;11.314;2023-12-22T13:13:47;3.47;;;0.40;;
60257;SDS011;46115;44.484;11.314;2023-12-22T13:17:50;0.65;;;0.30;;
60257;SDS011;46115;44.484;11.314;2023-12-22T13:21:53;0.45;;;0.20;;
60257;SDS011;46115;44.484;11.314;2023-12-22T13:25:57;2.80;;;1.05;;
60257;SDS011;46115;44.484;11.314;2023-12-22T13:30:00;1.15;;;0.28;;
60257;SDS011;46115;44.484;11.314;2023-12-22T13:34:03;0.77;;;0.40;;
60257;SDS011;46115;44.484;11.314;2023-12-22T13:38:10;2.50;;;0.25;;
60257;SDS011;46115;44.484;11.314;2023-12-22T13:42:15;0.93;;;0.40;;
60257;SDS011;46115;44.484;11.314;2023-12-22T13:46:19;2.15;;;0.30;;
60257;SDS011;46115;44.484;11.314;2023-12-22T13:50:22;1.83;;;0.30;;
60257;SDS011;46115;44.484;11.314;2023-12-22T13:54:31;0.98;;;0.35;;
60257;SDS011;46115;44.484;11.314;2023-12-22T13:58:34;5.32;;;0.40;;
60257;SDS011;46115;44.484;11.314;2023-12-22T14:02:47;1.00;;;0.30;;
60257;SDS011;46115;44.484;11.314;2023-12-22T14:06:51;0.50;;;0.35;;
60257;SDS011;46115;44.484;11.314;2023-12-22T14:10:53;0.70;;;0.40;;
60257;SDS011;46115;44.484;11.314;2023-12-22T14:14:56;1.65;;;0.30;;
60257;SDS011;46115;44.484;11.314;2023-12-22T14:19:00;1.52;;;0.30;;
60257;SDS011;46115;44.484;11.314;2023-12-22T14:23:02;0.40;;;0.28;;
60257;SDS011;46115;44.484;11.314;2023-12-22T14:27:05;0.68;;;0.32;;
60257;SDS011;46115;44.484;11.314;2023-12-22T14:31:07;8.85;;;5.55;;
60257;SDS011;46115;44.484;11.314;2023-12-22T14:35:11;0.20;;;0.20;;
60257;SDS011;46115;44.484;11.314;2023-12-22T14:39:13;1.73;;;0.40;;
60257;SDS011;46115;44.484;11.314;2023-12-22T14:43:16;0.75;;;0.40;;
60257;SDS011;46115;44.484;11.314;2023-12-22T14:47:18;1.65;;;0.30;;
60257;SDS011;46115;44.484;11.314;2023-12-22T14:51:22;0.75;;;0.30;;
60257;SDS011;46115;44.484;11.314;2023-12-22T14:55:24;1.38;;;0.50;;
60257;SDS011;46115;44.484;11.314;2023-12-22T14:59:27;2.05;;;0.30;;
60257;SDS011;46115;44.484;11.314;2023-12-22T15:03:29;0.35;;;0.25;;
60257;SDS011;46115;44.484;11.314;2023-12-22T15:07:33;0.82;;;0.30;;
60257;SDS011;46115;44.484;11.314;2023-12-22T15:11:40;2.00;;;0.60;;
60257;SDS011;46115;44.484;11.314;2023-12-22T15:15:43;0.50;;;0.30;;
60257;SDS011;46115;44.484;11.314;2023-12-22T15:19:45;0.38;;;0.30;;
60257;SDS011;46115;44.484;11.314;2023-12-22T15:23:49;0.93;;;0.30;;
60257;SDS011;46115;44.484;11.314;2023-12-22T15:27:51;0.73;;;0.40;;
60257;SDS011;46115;44.484;11.314;2023-12-22T15:31:54;1.95;;;0.40;;
60257;SDS011;46115;44.484;11.314;2023-12-22T15:36:00;1.20;;;0.40;;
60257;SDS011;46115;44.484;11.314;2023-12-22T15:40:05;0.98;;;0.30;;
60257;SDS011;46115;44.484;11.314;2023-12-22T15:44:10;3.90;;;0.30;;
60257;SDS011;46115;44.484;11.314;2023-12-22T15:48:13;0.40;;;0.30;;
60257;SDS011;46115;44.484;11.314;2023-12-22T15:52:16;3.15;;;0.50;;
60257;SDS011;46115;44.484;11.314;2023-12-22T23:06:08;5.32;;;1.48;;
60257;SDS011;46115;44.484;11.314;2023-12-22T23:10:10;7.28;;;1.67;;
60257;SDS011;46115;44.484;11.314;2023-12-22T23:14:13;5.40;;;1.40;;
60257;SDS011;46115;44.484;11.314;2023-12-22T23:18:15;4.22;;;1.30;;
60257;SDS011;46115;44.484;11.314;2023-12-22T23:26:21;4.22;;;1.60;;
60257;SDS011;46115;44.484;11.314;2023-12-22T23:34:26;5.85;;;1.60;;
60257;SDS011;46115;44.484;11.314;2023-12-22T23:38:29;6.25;;;1.63;;
60257;SDS011;46115;44.484;11.314;2023-12-22T23:42:32;5.55;;;1.30;;
60257;SDS011;46115;44.484;11.314;2023-12-22T23:50:36;6.80;;;1.58;;
60257;SDS011;46115;44.484;11.314;2023-12-22T23:54:40;5.68;;;1.45;;
60257;SDS011;46115;44.484;11.314;2023-12-22T23:58:43;7.18;;;1.70;;
